sensor_id;sensor_type;location;lat;lon;timestamp;P1;durP1;ratioP1;P2;durP2;ratioP2
63026;SDS011;59113;51.434;-2.004;2022-07-31T09:11:07;0.88;;;0.15;;
63026;SDS011;59113;51.434;-2.004;2022-07-31T09:13:35;0.80;;;0.28;;
63026;SDS011;59113;51.434;-2.004;2022-07-31T09:38:36;0.32;;;0.00;;
63026;SDS011;59113;51.434;-2.004;2022-07-31T09:41:13;0.45;;;0.17;;
63026;SDS011;59113;51.434;-2.004;2022-07-31T09:43:43;0.30;;;0.10;;
63026;SDS011;59113;51.434;-2.004;2022-07-31T09:49:40;0.52;;;0.15;;
63026;SDS011;59113;51.434;-2.004;2022-07-31T09:52:05;0.32;;;0.10;;
63026;SDS011;59113;51.434;-2.004;2022-07-31T09:54:31;2.42;;;0.30;;
63026;SDS011;59113;51.434;-2.004;2022-07-31T10:23:49;1.33;;;0.20;;
63026;SDS011;59113;51.434;-2.004;2022-07-31T10:29:49;0.80;;;0.30;;
63026;SDS011;59113;51.434;-2.004;2022-07-31T10:32:19;1.25;;;0.30;;
63026;SDS011;59113;51.434;-2.004;2022-07-31T10:43:49;1.00;;;0.20;;
63026;SDS011;59113;51.434;-2.004;2022-07-31T10:52:41;0.98;;;0.40;;
63026;SDS011;59113;51.434;-2.004;2022-07-31T10:58:17;2.22;;;0.70;;
63026;SDS011;59113;51.434;-2.004;2022-07-31T11:00:43;0.75;;;0.30;;
63026;SDS011;59113;51.434;-2.004;2022-07-31T11:09:30;3.35;;;0.40;;
63026;SDS011;59113;51.434;-2.004;2022-07-31T11:11:55;3.15;;;0.30;;
63026;SDS011;59113;51.434;-2.004;2022-07-31T11:14:34;1.13;;;0.50;;
63026;SDS011;59113;51.434;-2.004;2022-07-31T11:20:28;4.28;;;0.32;;
63026;SDS011;59113;51.434;-2.004;2022-07-31T11:22:59;1.42;;;0.55;;
63026;SDS011;59113;51.434;-2.004;2022-07-31T11:31:59;1.67;;;0.20;;
63026;SDS011;59113;51.434;-2.004;2022-07-31T11:34:41;2.65;;;0.30;;
63026;SDS011;59113;51.434;-2.004;2022-07-31T11:37:18;0.80;;;0.35;;
63026;SDS011;59113;51.434;-2.004;2022-07-31T11:39:47;1.48;;;0.38;;
63026;SDS011;59113;51.434;-2.004;2022-07-31T11:42:13;2.38;;;0.52;;
63026;SDS011;59113;51.434;-2.004;2022-07-31T11:44:38;2.70;;;0.47;;
63026;SDS011;59113;51.434;-2.004;2022-07-31T11:47:05;0.80;;;0.38;;
63026;SDS011;59113;51.434;-2.004;2022-07-31T11:49:33;0.80;;;0.30;;
63026;SDS011;59113;51.434;-2.004;2022-07-31T11:52:01;0.82;;;0.38;;
63026;SDS011;59113;51.434;-2.004;2022-07-31T11:54:32;0.75;;;0.30;;
63026;SDS011;59113;51.434;-2.004;2022-07-31T12:00:38;1.27;;;0.40;;
63026;SDS011;59113;51.434;-2.004;2022-07-31T12:03:14;1.48;;;0.40;;
63026;SDS011;59113;51.434;-2.004;2022-07-31T12:09:03;3.53;;;0.73;;
63026;SDS011;59113;51.434;-2.004;2022-07-31T12:11:29;0.95;;;0.55;;
63026;SDS011;59113;51.434;-2.004;2022-07-31T12:13:55;2.13;;;0.70;;
63026;SDS011;59113;51.434;-2.004;2022-07-31T12:20:07;1.02;;;0.47;;
63026;SDS011;59113;51.434;-2.004;2022-07-31T12:22:33;1.35;;;0.60;;
63026;SDS011;59113;51.434;-2.004;2022-07-31T12:24:59;0.85;;;0.63;;
63026;SDS011;59113;51.434;-2.004;2022-07-31T12:30:56;0.80;;;0.30;;
63026;SDS011;59113;51.434;-2.004;2022-07-31T12:33:22;2.45;;;0.47;;
63026;SDS011;59113;51.434;-2.004;2022-07-31T12:38:36;0.75;;;0.30;;
63026;SDS011;59113;51.434;-2.004;2022-07-31T12:41:05;1.88;;;0.50;;
63026;SDS011;59113;51.434;-2.004;2022-07-31T12:43:30;0.63;;;0.43;;
63026;SDS011;59113;51.434;-2.004;2022-07-31T12:49:18;0.50;;;0.40;;
63026;SDS011;59113;51.434;-2.004;2022-07-31T12:51:43;0.73;;;0.30;;
63026;SDS011;59113;51.434;-2.004;2022-07-31T12:54:09;0.82;;;0.50;;
63026;SDS011;59113;51.434;-2.004;2022-07-31T12:56:37;0.55;;;0.32;;
63026;SDS011;59113;51.434;-2.004;2022-07-31T12:59:04;0.90;;;0.30;;
63026;SDS011;59113;51.434;-2.004;2022-07-31T13:01:31;1.67;;;0.70;;
63026;SDS011;59113;51.434;-2.004;2022-07-31T13:03:57;0.77;;;0.50;;
63026;SDS011;59113;51.434;-2.004;2022-07-31T13:09:07;1.00;;;0.52;;
63026;SDS011;59113;51.434;-2.004;2022-07-31T13:11:32;2.40;;;0.45;;
63026;SDS011;59113;51.434;-2.004;2022-07-31T13:13:58;1.13;;;0.50;;
63026;SDS011;59113;51.434;-2.004;2022-07-31T13:19:13;2.35;;;0.50;;
63026;SDS011;59113;51.434;-2.004;2022-07-31T13:21:39;0.80;;;0.52;;
63026;SDS011;59113;51.434;-2.004;2022-07-31T13:24:05;0.95;;;0.55;;
63026;SDS011;59113;51.434;-2.004;2022-07-31T13:29:22;0.63;;;0.57;;
63026;SDS011;59113;51.434;-2.004;2022-07-31T13:31:48;1.92;;;0.85;;
63026;SDS011;59113;51.434;-2.004;2022-07-31T13:34:14;1.88;;;0.75;;
63026;SDS011;59113;51.434;-2.004;2022-07-31T13:36:41;1.15;;;0.60;;
63026;SDS011;59113;51.434;-2.004;2022-07-31T13:39:07;1.15;;;0.68;;
63026;SDS011;59113;51.434;-2.004;2022-07-31T13:41:33;1.40;;;0.80;;
63026;SDS011;59113;51.434;-2.004;2022-07-31T13:44:00;2.17;;;0.82;;
63026;SDS011;59113;51.434;-2.004;2022-07-31T13:46:30;2.65;;;0.90;;
63026;SDS011;59113;51.434;-2.004;2022-07-31T13:48:56;1.50;;;1.00;;
63026;SDS011;59113;51.434;-2.004;2022-07-31T13:51:23;2.08;;;1.00;;
63026;SDS011;59113;51.434;-2.004;2022-07-31T13:53:49;1.30;;;0.70;;
63026;SDS011;59113;51.434;-2.004;2022-07-31T14:02:06;1.80;;;0.93;;
63026;SDS011;59113;51.434;-2.004;2022-07-31T14:04:31;1.73;;;0.70;;
63026;SDS011;59113;51.434;-2.004;2022-07-31T14:09:43;1.50;;;0.85;;
63026;SDS011;59113;51.434;-2.004;2022-07-31T14:12:09;1.40;;;0.80;;
63026;SDS011;59113;51.434;-2.004;2022-07-31T14:14:34;1.70;;;0.80;;
63026;SDS011;59113;51.434;-2.004;2022-07-31T14:17:00;1.55;;;0.70;;
63026;SDS011;59113;51.434;-2.004;2022-07-31T14:19:25;2.05;;;0.93;;
63026;SDS011;59113;51.434;-2.004;2022-07-31T14:21:51;1.75;;;0.90;;
63026;SDS011;59113;51.434;-2.004;2022-07-31T14:24:16;1.55;;;0.93;;
63026;SDS011;59113;51.434;-2.004;2022-07-31T14:26:42;1.85;;;0.93;;
63026;SDS011;59113;51.434;-2.004;2022-07-31T14:29:07;1.55;;;0.90;;
63026;SDS011;59113;51.434;-2.004;2022-07-31T14:31:33;2.78;;;0.98;;
63026;SDS011;59113;51.434;-2.004;2022-07-31T14:33:58;1.80;;;0.88;;
63026;SDS011;59113;51.434;-2.004;2022-07-31T14:39:48;1.98;;;0.93;;
63026;SDS011;59113;51.434;-2.004;2022-07-31T14:42:14;1.90;;;1.33;;
63026;SDS011;59113;51.434;-2.004;2022-07-31T14:44:43;1.20;;;0.90;;
63026;SDS011;59113;51.434;-2.004;2022-07-31T14:47:17;2.95;;;1.13;;
63026;SDS011;59113;51.434;-2.004;2022-07-31T14:49:42;1.83;;;0.95;;
63026;SDS011;59113;51.434;-2.004;2022-07-31T14:52:08;1.85;;;1.20;;
63026;SDS011;59113;51.434;-2.004;2022-07-31T14:54:33;2.00;;;1.15;;
63026;SDS011;59113;51.434;-2.004;2022-07-31T14:59:29;3.78;;;1.13;;
63026;SDS011;59113;51.434;-2.004;2022-07-31T15:05:16;8.90;;;1.75;;
63026;SDS011;59113;51.434;-2.004;2022-07-31T15:07:42;3.13;;;1.60;;
63026;SDS011;59113;51.434;-2.004;2022-07-31T15:10:08;2.22;;;1.20;;
63026;SDS011;59113;51.434;-2.004;2022-07-31T15:12:35;3.42;;;1.70;;
63026;SDS011;59113;51.434;-2.004;2022-07-31T15:15:00;2.10;;;1.33;;
63026;SDS011;59113;51.434;-2.004;2022-07-31T15:17:27;2.15;;;1.65;;
63026;SDS011;59113;51.434;-2.004;2022-07-31T15:19:52;1.85;;;1.40;;
63026;SDS011;59113;51.434;-2.004;2022-07-31T15:22:18;3.13;;;1.15;;
63026;SDS011;59113;51.434;-2.004;2022-07-31T15:24:44;4.35;;;1.30;;
63026;SDS011;59113;51.434;-2.004;2022-07-31T15:27:15;2.08;;;1.38;;
63026;SDS011;59113;51.434;-2.004;2022-07-31T15:29:42;1.90;;;1.30;;
63026;SDS011;59113;51.434;-2.004;2022-07-31T15:32:07;2.72;;;1.58;;
63026;SDS011;59113;51.434;-2.004;2022-07-31T15:34:33;3.13;;;1.27;;
63026;SDS011;59113;51.434;-2.004;2022-07-31T15:37:04;3.00;;;1.42;;
63026;SDS011;59113;51.434;-2.004;2022-07-31T15:39:29;2.72;;;1.63;;
63026;SDS011;59113;51.434;-2.004;2022-07-31T15:41:55;2.30;;;1.58;;
63026;SDS011;59113;51.434;-2.004;2022-07-31T15:44:22;5.20;;;1.40;;
63026;SDS011;59113;51.434;-2.004;2022-07-31T15:46:48;34.13;;;5.18;;
63026;SDS011;59113;51.434;-2.004;2022-07-31T15:49:14;3.80;;;1.48;;
63026;SDS011;59113;51.434;-2.004;2022-07-31T15:51:39;2.42;;;1.45;;
63026;SDS011;59113;51.434;-2.004;2022-07-31T15:54:05;1.85;;;1.48;;
63026;SDS011;59113;51.434;-2.004;2022-07-31T15:59:17;2.45;;;1.40;;
63026;SDS011;59113;51.434;-2.004;2022-07-31T16:01:42;2.63;;;1.50;;
63026;SDS011;59113;51.434;-2.004;2022-07-31T16:04:17;2.33;;;1.20;;
63026;SDS011;59113;51.434;-2.004;2022-07-31T16:06:45;2.38;;;1.40;;
63026;SDS011;59113;51.434;-2.004;2022-07-31T16:09:14;2.92;;;1.58;;
63026;SDS011;59113;51.434;-2.004;2022-07-31T16:11:40;1.75;;;1.33;;
63026;SDS011;59113;51.434;-2.004;2022-07-31T16:14:05;1.90;;;1.45;;
63026;SDS011;59113;51.434;-2.004;2022-07-31T16:19:01;4.00;;;1.90;;
63026;SDS011;59113;51.434;-2.004;2022-07-31T16:21:27;1.98;;;1.17;;
63026;SDS011;59113;51.434;-2.004;2022-07-31T16:23:52;2.00;;;1.60;;
63026;SDS011;59113;51.434;-2.004;2022-07-31T16:29:36;3.50;;;1.85;;
63026;SDS011;59113;51.434;-2.004;2022-07-31T16:32:02;2.33;;;1.90;;
63026;SDS011;59113;51.434;-2.004;2022-07-31T16:34:27;2.45;;;1.95;;
63026;SDS011;59113;51.434;-2.004;2022-07-31T16:39:38;7.40;;;2.20;;
63026;SDS011;59113;51.434;-2.004;2022-07-31T16:42:04;2.60;;;1.60;;
63026;SDS011;59113;51.434;-2.004;2022-07-31T16:44:29;1.75;;;1.17;;
63026;SDS011;59113;51.434;-2.004;2022-07-31T16:49:29;3.80;;;1.90;;
63026;SDS011;59113;51.434;-2.004;2022-07-31T16:51:55;6.35;;;1.77;;
63026;SDS011;59113;51.434;-2.004;2022-07-31T16:54:20;5.60;;;1.65;;
63026;SDS011;59113;51.434;-2.004;2022-07-31T16:59:33;2.95;;;1.88;;
63026;SDS011;59113;51.434;-2.004;2022-07-31T17:02:00;4.35;;;1.80;;
63026;SDS011;59113;51.434;-2.004;2022-07-31T17:04:26;3.63;;;1.85;;
63026;SDS011;59113;51.434;-2.004;2022-07-31T17:09:37;2.72;;;2.05;;
63026;SDS011;59113;51.434;-2.004;2022-07-31T17:12:02;3.90;;;2.65;;
63026;SDS011;59113;51.434;-2.004;2022-07-31T17:14:28;5.22;;;2.60;;
63026;SDS011;59113;51.434;-2.004;2022-07-31T17:16:54;8.10;;;2.67;;
63026;SDS011;59113;51.434;-2.004;2022-07-31T17:19:21;3.95;;;2.78;;
63026;SDS011;59113;51.434;-2.004;2022-07-31T17:21:48;9.85;;;3.05;;
63026;SDS011;59113;51.434;-2.004;2022-07-31T17:24:14;3.97;;;2.38;;
63026;SDS011;59113;51.434;-2.004;2022-07-31T17:26:41;5.57;;;3.22;;
63026;SDS011;59113;51.434;-2.004;2022-07-31T17:29:07;4.60;;;2.47;;
63026;SDS011;59113;51.434;-2.004;2022-07-31T17:31:35;4.38;;;2.40;;
63026;SDS011;59113;51.434;-2.004;2022-07-31T17:34:02;5.22;;;2.58;;
63026;SDS011;59113;51.434;-2.004;2022-07-31T17:39:50;4.63;;;2.60;;
63026;SDS011;59113;51.434;-2.004;2022-07-31T17:42:22;5.22;;;2.60;;
63026;SDS011;59113;51.434;-2.004;2022-07-31T17:44:48;6.63;;;3.25;;
63026;SDS011;59113;51.434;-2.004;2022-07-31T17:49:47;5.07;;;3.08;;
63026;SDS011;59113;51.434;-2.004;2022-07-31T17:52:13;4.77;;;2.77;;
63026;SDS011;59113;51.434;-2.004;2022-07-31T17:54:39;4.68;;;2.78;;
63026;SDS011;59113;51.434;-2.004;2022-07-31T17:57:06;5.00;;;3.20;;
63026;SDS011;59113;51.434;-2.004;2022-07-31T17:59:32;4.13;;;2.88;;
63026;SDS011;59113;51.434;-2.004;2022-07-31T18:01:57;8.13;;;3.25;;
63026;SDS011;59113;51.434;-2.004;2022-07-31T18:04:29;9.65;;;3.97;;
63026;SDS011;59113;51.434;-2.004;2022-07-31T18:10:20;4.05;;;2.85;;
63026;SDS011;59113;51.434;-2.004;2022-07-31T18:12:47;8.60;;;3.65;;
63026;SDS011;59113;51.434;-2.004;2022-07-31T18:15:13;5.82;;;3.05;;
63026;SDS011;59113;51.434;-2.004;2022-07-31T18:17:42;6.45;;;3.10;;
63026;SDS011;59113;51.434;-2.004;2022-07-31T18:20:15;5.53;;;3.85;;
63026;SDS011;59113;51.434;-2.004;2022-07-31T18:22:45;7.03;;;4.20;;
63026;SDS011;59113;51.434;-2.004;2022-07-31T18:25:11;5.43;;;2.70;;
63026;SDS011;59113;51.434;-2.004;2022-07-31T18:27:37;5.97;;;2.75;;
63026;SDS011;59113;51.434;-2.004;2022-07-31T18:30:02;6.75;;;2.55;;
63026;SDS011;59113;51.434;-2.004;2022-07-31T18:32:31;6.80;;;3.03;;
63026;SDS011;59113;51.434;-2.004;2022-07-31T18:34:57;4.45;;;2.47;;
63026;SDS011;59113;51.434;-2.004;2022-07-31T18:37:25;7.65;;;2.40;;
63026;SDS011;59113;51.434;-2.004;2022-07-31T18:39:51;8.25;;;2.88;;
63026;SDS011;59113;51.434;-2.004;2022-07-31T18:42:17;4.40;;;2.58;;
63026;SDS011;59113;51.434;-2.004;2022-07-31T18:44:43;5.95;;;2.50;;
63026;SDS011;59113;51.434;-2.004;2022-07-31T18:50:30;5.68;;;2.47;;
63026;SDS011;59113;51.434;-2.004;2022-07-31T18:52:55;8.48;;;2.45;;
63026;SDS011;59113;51.434;-2.004;2022-07-31T18:58:50;10.52;;;2.90;;
63026;SDS011;59113;51.434;-2.004;2022-07-31T19:01:16;8.68;;;2.90;;
63026;SDS011;59113;51.434;-2.004;2022-07-31T19:03:41;5.25;;;2.50;;
63026;SDS011;59113;51.434;-2.004;2022-07-31T19:09:28;6.88;;;2.50;;
63026;SDS011;59113;51.434;-2.004;2022-07-31T19:11:54;11.75;;;2.90;;
63026;SDS011;59113;51.434;-2.004;2022-07-31T19:14:20;5.82;;;2.38;;
63026;SDS011;59113;51.434;-2.004;2022-07-31T19:20:14;6.82;;;2.80;;
63026;SDS011;59113;51.434;-2.004;2022-07-31T19:22:41;7.10;;;2.40;;
63026;SDS011;59113;51.434;-2.004;2022-07-31T19:25:07;6.22;;;2.78;;
63026;SDS011;59113;51.434;-2.004;2022-07-31T19:27:33;9.23;;;2.53;;
63026;SDS011;59113;51.434;-2.004;2022-07-31T19:29:59;6.00;;;2.40;;
63026;SDS011;59113;51.434;-2.004;2022-07-31T19:32:39;7.13;;;2.33;;
63026;SDS011;59113;51.434;-2.004;2022-07-31T19:35:05;6.93;;;2.38;;
63026;SDS011;59113;51.434;-2.004;2022-07-31T19:37:31;10.20;;;2.30;;
63026;SDS011;59113;51.434;-2.004;2022-07-31T19:39:57;14.15;;;2.80;;
63026;SDS011;59113;51.434;-2.004;2022-07-31T19:42:25;5.63;;;2.72;;
63026;SDS011;59113;51.434;-2.004;2022-07-31T19:44:50;8.90;;;2.42;;
63026;SDS011;59113;51.434;-2.004;2022-07-31T19:50:38;5.38;;;2.28;;
63026;SDS011;59113;51.434;-2.004;2022-07-31T19:53:03;3.97;;;2.10;;
63026;SDS011;59113;51.434;-2.004;2022-07-31T20:08:47;4.65;;;2.30;;
63026;SDS011;59113;51.434;-2.004;2022-07-31T20:14:15;6.03;;;2.03;;
63026;SDS011;59113;51.434;-2.004;2022-07-31T20:25:33;6.72;;;2.00;;
63026;SDS011;59113;51.434;-2.004;2022-07-31T20:27:58;6.65;;;2.22;;
